Map

Track Data

SID SEASON NUMBER BASIN SUBBASIN NAME ISO_TIME NATURE LAT LON WMO_WIND WMO_PRES WMO_AGENCY TRACK_TYPE DIST2LAND LANDFALL IFLAG USA_AGENCY USA_ATCF_ID USA_LAT USA_LON USA_RECORD USA_STATUS USA_WIND USA_PRES USA_SSHS USA_R34_NE USA_R34_SE USA_R34_SW USA_R34_NW USA_R50_NE USA_R50_SE USA_R50_SW USA_R50_NW USA_R64_NE USA_R64_SE USA_R64_SW USA_R64_NW USA_POCI USA_ROCI USA_RMW USA_EYE TOKYO_LAT TOKYO_LON TOKYO_GRADE TOKYO_WIND TOKYO_PRES TOKYO_R50_DIR TOKYO_R50_LONG TOKYO_R50_SHORT TOKYO_R30_DIR TOKYO_R30_LONG TOKYO_R30_SHORT TOKYO_LAND CMA_LAT CMA_LON CMA_CAT CMA_WIND CMA_PRES HKO_LAT HKO_LON HKO_CAT HKO_WIND HKO_PRES NEWDELHI_LAT NEWDELHI_LON NEWDELHI_GRADE NEWDELHI_WIND NEWDELHI_PRES NEWDELHI_CI NEWDELHI_DP NEWDELHI_POCI REUNION_LAT REUNION_LON REUNION_TYPE REUNION_WIND REUNION_PRES REUNION_TNUM REUNION_CI REUNION_RMW REUNION_R34_NE REUNION_R34_SE REUNION_R34_SW REUNION_R34_NW REUNION_R50_NE REUNION_R50_SE REUNION_R50_SW REUNION_R50_NW REUNION_R64_NE REUNION_R64_SE REUNION_R64_SW REUNION_R64_NW BOM_LAT BOM_LON BOM_TYPE BOM_WIND BOM_PRES BOM_TNUM BOM_CI BOM_RMW BOM_R34_NE BOM_R34_SE BOM_R34_SW BOM_R34_NW BOM_R50_NE BOM_R50_SE BOM_R50_SW BOM_R50_NW BOM_R64_NE BOM_R64_SE BOM_R64_SW BOM_R64_NW BOM_ROCI BOM_POCI BOM_EYE BOM_POS_METHOD BOM_PRES_METHOD NADI_LAT NADI_LON NADI_CAT NADI_WIND NADI_PRES WELLINGTON_LAT WELLINGTON_LON WELLINGTON_WIND WELLINGTON_PRES DS824_LAT DS824_LON DS824_STAGE DS824_WIND DS824_PRES TD9636_LAT TD9636_LON TD9636_STAGE TD9636_WIND TD9636_PRES TD9635_LAT TD9635_LON TD9635_WIND TD9635_PRES TD9635_ROCI NEUMANN_LAT NEUMANN_LON NEUMANN_CLASS NEUMANN_WIND NEUMANN_PRES MLC_LAT MLC_LON MLC_CLASS MLC_WIND MLC_PRES USA_GUST BOM_GUST BOM_GUST_PER REUNION_GUST REUNION_GUST_PER USA_SEAHGT USA_SEARAD_NE USA_SEARAD_SE USA_SEARAD_SW USA_SEARAD_NW STORM_SPEED STORM_DIR
1971202N16256 1971 78 EP MM GEORGETTE 1971-07-20 12:00:00 TS 15.7000 -103.600 25 hurdat_epa main 278 278 O________OO___ hurdat_epa EP071971 15.7000 -103.600 TD 25 -1 15.7000 -103.600 TC 25 15.7000 -103.600 1 11 276
1971202N16256 1971 78 EP MM GEORGETTE 1971-07-20 15:00:00 TS 15.7550 -104.142 main 285 285 P________PP___ EP071971 15.7628 -104.142 TD 25 -1 15.7628 -104.142 TC 25 15.7239 -104.142 1 11 275
1971202N16256 1971 78 EP MM GEORGETTE 1971-07-20 18:00:00 TS 15.7896 -104.700 25 hurdat_epa main 307 307 O________OP___ hurdat_epa EP071971 15.8000 -104.700 TD 25 -1 15.8000 -104.700 TC 25 15.7478 -104.698 1 11 272
1971202N16256 1971 78 EP MM GEORGETTE 1971-07-20 21:00:00 TS 15.7944 -105.284 main 338 338 P________PP___ EP071971 15.7998 -105.285 TD 25 -1 15.7998 -105.285 TC 25 15.7728 -105.279 1 12 271
1971202N16256 1971 78 EP MM GEORGETTE 1971-07-21 00:00:00 TS 15.8000 -105.900 25 hurdat_epa main 378 378 O________OO___ hurdat_epa EP071971 15.8000 -105.900 TD 25 -1 15.8000 -105.900 TC 25 15.8000 -105.900 1 12 272
1971202N16256 1971 78 EP MM GEORGETTE 1971-07-21 03:00:00 TS 15.8458 -106.547 main 421 415 P________PP___ EP071971 15.8499 -106.542 TD 25 -1 15.8499 -106.542 TC 25 15.8295 -106.565 1 13 274
1971202N16256 1971 78 EP MM GEORGETTE 1971-07-21 06:00:00 TS 15.8916 -107.209 25 hurdat_epa main 448 448 O________OP___ hurdat_epa EP071971 15.9000 -107.200 TD 25 -1 15.9000 -107.200 TC 25 15.8582 -107.245 1 13 273
1971202N16256 1971 78 EP MM GEORGETTE 1971-07-21 09:00:00 TS 15.9026 -107.885 main 494 494 P________PP___ EP071971 15.9075 -107.880 TD 25 -1 15.9075 -107.880 TC 25 15.8827 -107.902 1 12 270
1971202N16256 1971 78 EP MM GEORGETTE 1971-07-21 12:00:00 TS 15.9000 -108.500 25 hurdat_epa main 538 538 O________OO___ hurdat_epa EP071971 15.9000 -108.500 TD 25 -1 15.9000 -108.500 TC 25 15.9000 -108.500 1 11 270
1971202N16256 1971 78 EP MM GEORGETTE 1971-07-21 15:00:00 TS 15.9002 -108.990 main 577 577 P________PP___ EP071971 15.8997 -108.987 TD 25 -1 15.8997 -108.987 TC 25 15.9022 -108.998 1 9 270
1971202N16256 1971 78 EP MM GEORGETTE 1971-07-21 18:00:00 TS 15.8998 -109.407 25 hurdat_epa main 607 607 O________OP___ hurdat_epa EP071971 15.9000 -109.400 TD 25 -1 15.9000 -109.400 TC 25 15.8989 -109.433 1 8 270
1971202N16256 1971 78 EP MM GEORGETTE 1971-07-21 21:00:00 TS 15.8991 -109.811 main 638 638 P________PP___ EP071971 15.8999 -109.808 TD 25 -1 15.8999 -109.808 TC 25 15.8962 -109.826 1 8 270
1971202N16256 1971 78 EP MM GEORGETTE 1971-07-22 00:00:00 TS 15.9000 -110.200 25 hurdat_epa main 670 670 O________OO___ hurdat_epa EP071971 15.9000 -110.200 TD 25 -1 15.9000 -110.200 TC 25 15.9000 -110.200 1 8 270
1971202N16256 1971 78 EP MM GEORGETTE 1971-07-22 03:00:00 TS 15.8991 -110.607 main 703 703 P________PP___ EP071971 15.8925 -110.608 TD 25 -1 15.8925 -110.608 TC 25 15.9258 -110.605 1 8 271
1971202N16256 1971 78 EP MM GEORGETTE 1971-07-22 06:00:00 TS 15.9115 -110.999 25 hurdat_epa main 738 738 O________OP___ hurdat_epa EP071971 15.9000 -111.000 TD 25 -1 15.9000 -111.000 TC 25 15.9574 -110.995 1 7 275
1971202N16256 1971 78 EP MM GEORGETTE 1971-07-22 09:00:00 TS 15.9630 -111.364 main 766 766 P________PP___ EP071971 15.9574 -111.365 TD 25 -1 15.9574 -111.365 TC 25 15.9852 -111.362 1 7 277
1971202N16256 1971 78 EP MM GEORGETTE 1971-07-22 12:00:00 TS 16.0000 -111.700 25 hurdat_epa main 792 792 O________OO___ hurdat_epa EP071971 16.0000 -111.700 TD 25 -1 16.0000 -111.700 TC 25 16.0000 -111.700 1 6 270
1971202N16256 1971 78 EP MM GEORGETTE 1971-07-22 15:00:00 TS 15.9605 -112.008 main 799 799 P________PP___ EP071971 15.9575 -112.015 TD 25 -1 15.9575 -112.015 TC 25 15.9726 -111.980 1 6 261
1971202N16256 1971 78 EP MM GEORGETTE 1971-07-22 18:00:00 TS 15.9068 -112.287 25 hurdat_epa main 819 819 O________OP___ hurdat_epa EP071971 15.9000 -112.300 TD 25 -1 15.9000 -112.300 TC 25 15.9342 -112.235 1 5 262
1971202N16256 1971 78 EP MM GEORGETTE 1971-07-22 21:00:00 TS 15.8886 -112.522 main 825 825 P________PP___ EP071971 15.8848 -112.528 TD 27 -1 15.8848 -112.528 TC 27 15.9038 -112.498 1 5 269
1971202N16256 1971 78 EP MM GEORGETTE 1971-07-23 00:00:00 TS 15.9000 -112.800 30 hurdat_epa main 836 836 O________OO___ hurdat_epa EP071971 15.9000 -112.800 TD 30 -1 15.9000 -112.800 TC 30 15.9000 -112.800 2 7 274
1971202N16256 1971 78 EP MM GEORGETTE 1971-07-23 03:00:00 TS 15.9366 -113.220 main 851 845 P________PP___ EP071971 15.9351 -113.228 TD 37 0 15.9351 -113.228 TC 37 15.9424 -113.190 2 9 277
1971202N16256 1971 78 EP MM GEORGETTE 1971-07-23 06:00:00 TS 16.0026 -113.684 45 hurdat_epa main 863 863 O________OP___ hurdat_epa EP071971 16.0000 -113.700 TS 45 0 16.0000 -113.700 TC 45 16.0128 -113.620 2 9 281
1971202N16256 1971 78 EP MM GEORGETTE 1971-07-23 09:00:00 TS 16.0943 -114.099 main 873 873 P________PP___ EP071971 16.0924 -114.108 TS 45 0 16.0924 -114.108 TC 45 16.1018 -114.065 2 8 284
1971202N16256 1971 78 EP MM GEORGETTE 1971-07-23 12:00:00 TS 16.2000 -114.500 45 hurdat_epa main 885 885 O________OO___ hurdat_epa EP071971 16.2000 -114.500 TS 45 0 16.2000 -114.500 TC 45 16.2000 -114.500 2 8 284
1971202N16256 1971 78 EP MM GEORGETTE 1971-07-23 15:00:00 TS 16.2953 -114.909 main 898 898 P________PP___ EP071971 16.3000 -114.908 TS 45 0 16.3000 -114.908 TC 45 16.2765 -114.914 2 8 284
1971202N16256 1971 78 EP MM GEORGETTE 1971-07-23 18:00:00 TS 16.3925 -115.302 45 hurdat_epa main 914 914 O________OP___ hurdat_epa EP071971 16.4000 -115.300 TS 45 0 16.4000 -115.300 TC 45 16.3625 -115.310 2 8 285
1971202N16256 1971 78 EP MM GEORGETTE 1971-07-23 21:00:00 TS 16.4874 -115.679 main 931 931 P________PP___ EP071971 16.4925 -115.680 TS 45 0 16.4925 -115.680 TC 45 16.4672 -115.676 2 7 287
1971202N16256 1971 78 EP MM GEORGETTE 1971-07-24 00:00:00 TS 16.6000 -116.000 45 hurdat_epa main 943 942 O________OO___ hurdat_epa EP071971 16.6000 -116.000 TS 45 0 16.6000 -116.000 TC 45 16.6000 -116.000 2 6 295
1971202N16256 1971 78 EP MM GEORGETTE 1971-07-24 03:00:00 TS 16.7320 -116.226 main 949 947 P________PP___ EP071971 16.7274 -116.215 TS 45 0 16.7274 -116.215 TC 45 16.7506 -116.268 2 5 307
1971202N16256 1971 78 EP MM GEORGETTE 1971-07-24 06:00:00 TS 16.9064 -116.419 45 hurdat_epa main 947 946 O________OP___ hurdat_epa EP071971 16.9000 -116.400 TS 45 0 16.9000 -116.400 TC 45 16.9321 -116.495 2 6 314
1971202N16256 1971 78 EP MM GEORGETTE 1971-07-24 09:00:00 TS 17.1315 -116.660 main 954 946 P________PP___ EP071971 17.1275 -116.650 TS 47 0 17.1275 -116.650 TC 47 17.1475 -116.700 2 7 317
1971202N16256 1971 78 EP MM GEORGETTE 1971-07-24 12:00:00 TS 17.4000 -116.900 50 hurdat_epa main 946 937 O________OO___ hurdat_epa EP071971 17.4000 -116.900 TS 50 0 17.4000 -116.900 TC 50 17.4000 -116.900 2 7 323
1971202N16256 1971 78 EP MM GEORGETTE 1971-07-24 15:00:00 TS 17.6881 -117.099 main 937 922 P________PP___ EP071971 17.6849 -117.100 TS 50 0 17.6849 -117.100 TC 50 17.7009 -117.093 2 7 328
1971202N16256 1971 78 EP MM GEORGETTE 1971-07-24 18:00:00 TS 18.0069 -117.298 50 991 hurdat_epa main 922 907 O________OP___ hurdat_epa EP071971 18.0000 -117.300 TS 50 991 0 18.0000 -117.300 TC 50 991 18.0344 -117.291 2 8 329
1971202N16256 1971 78 EP MM GEORGETTE 1971-07-24 21:00:00 TS 18.3551 -117.520 main 898 892 P________PP___ EP071971 18.3499 -117.520 TS 50 0 18.3499 -117.520 TC 50 18.3757 -117.518 2 8 325
1971202N16256 1971 78 EP MM GEORGETTE 1971-07-25 00:00:00 TS 18.7000 -117.800 50 hurdat_epa main 892 888 O________OO___ hurdat_epa EP071971 18.7000 -117.800 TS 50 0 18.7000 -117.800 TC 50 18.7000 -117.800 2 9 317
1971202N16256 1971 78 EP MM GEORGETTE 1971-07-25 03:00:00 TS 19.0155 -118.164 main 895 887 P________PP___ EP071971 19.0225 -118.170 TS 50 0 19.0225 -118.170 TC 50 18.9875 -118.139 2 10 308
1971202N16256 1971 78 EP MM GEORGETTE 1971-07-25 06:00:00 TS 19.2904 -118.588 50 hurdat_epa main 901 901 O________OP___ hurdat_epa EP071971 19.3000 -118.600 TS 50 0 19.3000 -118.600 TC 50 19.2519 -118.538 2 9 302
1971202N16256 1971 78 EP MM GEORGETTE 1971-07-25 09:00:00 TS 19.5159 -119.015 main 916 916 P________PP___ EP071971 19.5223 -119.020 TS 50 0 19.5223 -119.020 TC 50 19.4904 -118.992 2 10 295
1971202N16256 1971 78 EP MM GEORGETTE 1971-07-25 12:00:00 TS 19.7000 -119.500 50 hurdat_epa main 942 942 O________OO___ hurdat_epa EP071971 19.7000 -119.500 TS 50 0 19.7000 -119.500 TC 50 19.7000 -119.500 2 11 289
1971202N16256 1971 78 EP MM GEORGETTE 1971-07-25 15:00:00 TS 19.8602 -120.073 main 979 979 P________PP___ EP071971 19.8575 -120.078 TS 50 0 19.8575 -120.078 TC 50 19.8709 -120.054 2 12 285
1971202N16256 1971 78 EP MM GEORGETTE 1971-07-25 18:00:00 TS 20.0031 -120.691 50 hurdat_epa main 1024 1024 O________OP___ hurdat_epa EP071971 20.0000 -120.700 TS 50 0 20.0000 -120.700 TC 50 20.0153 -120.656 2 12 284
1971202N16256 1971 78 EP MM GEORGETTE 1971-07-25 21:00:00 TS 20.1443 -121.302 main 1059 1050 P________PP___ EP071971 20.1424 -121.308 TS 50 0 20.1424 -121.308 TC 50 20.1520 -121.280 2 12 285
1971202N16256 1971 78 EP MM GEORGETTE 1971-07-26 00:00:00 TS 20.3000 -121.900 50 hurdat_epa main 1083 1083 O________OO___ hurdat_epa EP071971 20.3000 -121.900 TS 50 0 20.3000 -121.900 TC 50 20.3000 -121.900 2 11 288
1971202N16256 1971 78 EP MM GEORGETTE 1971-07-26 03:00:00 TS 20.4922 -122.451 main 1106 1105 P________PP___ EP071971 20.4922 -122.450 TS 47 0 20.4922 -122.450 TC 47 20.4924 -122.454 2 11 291
1971202N16256 1971 78 EP MM GEORGETTE 1971-07-26 06:00:00 TS 20.6996 -123.001 45 hurdat_epa main 1126 1126 O________OP___ hurdat_epa EP071971 20.7000 -123.000 TS 45 0 20.7000 -123.000 TC 45 20.6979 -123.005 2 11 291
1971202N16256 1971 78 EP MM GEORGETTE 1971-07-26 09:00:00 TS 20.9067 -123.578 main 1155 1155 P________PP___ EP071971 20.9072 -123.578 TS 45 0 20.9072 -123.578 TC 45 20.9046 -123.579 2 12 290
1971202N16256 1971 78 EP MM GEORGETTE 1971-07-26 12:00:00 TS 21.1000 -124.200 45 hurdat_epa main 1186 1186 O________OO___ hurdat_epa EP071971 21.1000 -124.200 TS 45 0 21.1000 -124.200 TC 45 21.1000 -124.200 2 13 286
1971202N16256 1971 78 EP MM GEORGETTE 1971-07-26 15:00:00 TS 21.2585 -124.871 main 1229 1229 P________PP___ EP071971 21.2572 -124.870 TS 45 0 21.2572 -124.870 TC 45 21.2636 -124.876 2 13 283
1971202N16256 1971 78 EP MM GEORGETTE 1971-07-26 18:00:00 TS 21.4027 -125.601 45 hurdat_epa main 1281 1281 O________OP___ hurdat_epa EP071971 21.4000 -125.600 TS 45 0 21.4000 -125.600 TC 45 21.4137 -125.604 2 14 282
1971202N16256 1971 78 EP MM GEORGETTE 1971-07-26 21:00:00 TS 21.5512 -126.378 main 1336 1336 P________PP___ EP071971 21.5497 -126.378 TS 45 0 21.5497 -126.378 TC 45 21.5569 -126.379 2 15 281
1971202N16256 1971 78 EP MM GEORGETTE 1971-07-27 00:00:00 TS 21.7000 -127.200 45 hurdat_epa main 1401 1401 O________OO___ hurdat_epa EP071971 21.7000 -127.200 TS 45 0 21.7000 -127.200 TC 45 21.7000 -127.200 2 16 281
1971202N16256 1971 78 EP MM GEORGETTE 1971-07-27 03:00:00 TS 21.8492 -128.034 main 1466 1466 P________PP___ EP071971 21.8494 -128.028 TS 35 0 21.8494 -128.028 TC 35 21.8480 -128.061 2 16 281
1971202N16256 1971 78 EP MM GEORGETTE 1971-07-27 06:00:00 TS 21.9999 -128.911 25 hurdat_epa main 1538 1538 O________OP___ hurdat_epa EP071971 22.0000 -128.900 TD 25 -1 22.0000 -128.900 TC 25 21.9994 -128.955 2 17 280
1971202N16256 1971 78 EP MM GEORGETTE 1971-07-27 09:00:00 TS 22.1512 -129.840 main 1611 1611 P________PP___ EP071971 22.1513 -129.832 TD 25 -1 22.1513 -129.832 TC 25 22.1510 -129.872 2 18 280
1971202N16256 1971 78 EP MM GEORGETTE 1971-07-27 12:00:00 TS 22.3000 -130.800 25 hurdat_epa main 1682 O________OO___ hurdat_epa EP071971 22.3000 -130.800 TD 25 -1 22.3000 -130.800 TC 25 22.3000 -130.800 6 18 280

About IBTrACS Database

This database is a web-friendly format of International Best Track Archive for Climate Stewardship (IBTrACS), a global best track data archive curated by NOAA dating back to 1842.

Updated: 2021-11-26